Portada
METAR-TAF:

METAR-TAF

Aeroports :

Wellington, Nova Zelanda

latitud: 41-20S, longitud: 174-48E, altitud: 12 m

Observació

L'informe es va fer fa 23 minuts, a les 13:00 UTC
Vent 1 kt del Nord/Nord-Oest
Temperatura 15°C
Humitat 82%
Pressió 1021 hPa
Visibilitat 10 km o més

METAR: NZWN 301300Z AUTO 33001KT 9999 OVC080/// 15/12 Q1021 NOSIG

Hora: 02:23 (13:23 UTC)

Pronòstic

L'informe es va fer fa 2 hores i 19 minuts, a les 11:04 UTC
Pronòstic vàlid del 30 a les 12 UTC al 31 a les 12 UTC
Vent 8 kt del Est
Visibilitat 10 km o més
Núvols disperses a una alçada de 3500 ft
Evolucionant progressivament
l' 30 a les 19 UTC al 30 a les 21 UTC
Vent 14 kt del Sud/Sud-Est
Probabilitat 40% :
Temporalment
l' 30 a les 22 UTC al 31 a les 02 UTC
Visibilitat: 7000 m
Cel ennuvolat a una alçada de 1200 ft
xàfecs de pluja

TAF: NZWN 301104Z 3012/3112 10008KT 9999 SCT035 BECMG 3019/3021 16014KT PROB40 TEMPO 3022/3102 7000 SHRA BKN012

Observacions i pronòstics meteorològics de més de 4000 aeroports (METAR i TAF).

Les estacions disponibles són els punts grocs i vermells al mapa.

Posi el ratolí al punt desitjat per veure el nom de l'estació.

Feu clic per veure les observacions i els pronòstics meteorològics.

Per canviar el mapa: feu clic els botons verds amb una creu de color negre per apropar; al botó verd amb un guió per allunyar la imatge; o en les fletxes verdes per a mapes adjacents.


METAR-TAF: